createdAt,value
2022-11-20T00:00:12.007Z,77
2022-11-20T00:01:12.375Z,77
2022-11-20T00:02:12.871Z,77
2022-11-20T00:03:13.698Z,77
2022-11-20T00:04:14.112Z,77
2022-11-20T00:05:14.912Z,77
2022-11-20T00:06:15.309Z,77
2022-11-20T00:07:15.717Z,77
2022-11-20T00:08:16.583Z,77
2022-11-20T00:09:16.991Z,77
2022-11-20T00:10:17.389Z,77
2022-11-20T00:11:17.775Z,77
2022-11-20T00:12:18.182Z,77
2022-11-20T00:13:18.949Z,77
2022-11-20T00:14:19.321Z,77
2022-11-20T00:15:19.731Z,77
2022-11-20T00:16:20.133Z,77
2022-11-20T00:17:20.536Z,77
2022-11-20T00:18:21.200Z,77
2022-11-20T00:19:21.842Z,77
2022-11-20T00:20:22.828Z,77
2022-11-20T00:21:23.231Z,77
2022-11-20T00:22:23.620Z,77
2022-11-20T00:23:24.466Z,77
2022-11-20T00:24:24.859Z,77
2022-11-20T00:25:25.262Z,77
2022-11-20T00:26:25.667Z,77
2022-11-20T00:27:26.064Z,77
2022-11-20T00:28:26.774Z,77
2022-11-20T00:29:27.165Z,77
2022-11-20T00:30:27.568Z,77
2022-11-20T00:31:27.963Z,77
2022-11-20T00:32:28.359Z,77
2022-11-20T00:33:29.187Z,77
2022-11-20T00:34:29.583Z,77
2022-11-20T00:35:30.278Z,77
2022-11-20T00:36:30.682Z,77
2022-11-20T00:37:31.041Z,77
2022-11-20T00:38:31.814Z,77
2022-11-20T00:39:32.209Z,77
2022-11-20T00:40:32.616Z,77
2022-11-20T00:41:33.013Z,77
2022-11-20T00:42:33.406Z,77
2022-11-20T00:43:34.250Z,77
2022-11-20T00:44:34.620Z,77
2022-11-20T00:45:35.001Z,77
2022-11-20T00:46:35.366Z,77
2022-11-20T00:47:35.730Z,77
2022-11-20T00:48:36.507Z,77
2022-11-20T00:49:36.910Z,77
2022-11-20T00:50:37.682Z,77
2022-11-20T00:51:38.048Z,77
2022-11-20T00:52:38.462Z,77
2022-11-20T00:53:39.189Z,78
2022-11-20T00:54:39.575Z,78
2022-11-20T00:55:39.971Z,78
2022-11-20T00:56:40.356Z,78
2022-11-20T00:57:40.742Z,78
2022-11-20T00:58:41.566Z,78
2022-11-20T00:59:41.952Z,78
2022-11-20T01:00:42.380Z,78
2022-11-20T01:01:42.853Z,78
2022-11-20T01:02:43.255Z,78
2022-11-20T01:03:44.094Z,78
2022-11-20T01:04:44.462Z,78
2022-11-20T01:05:45.405Z,78
2022-11-20T01:06:45.794Z,78
2022-11-20T01:07:46.188Z,78
2022-11-20T01:08:46.972Z,78
2022-11-20T01:09:47.371Z,78
2022-11-20T01:10:47.779Z,78
2022-11-20T01:11:48.146Z,78
2022-11-20T01:12:48.514Z,78
2022-11-20T01:13:49.346Z,78
2022-11-20T01:14:49.728Z,78
2022-11-20T01:15:50.125Z,78
2022-11-20T01:16:50.534Z,78
2022-11-20T01:17:50.945Z,78
2022-11-20T01:18:51.765Z,78
2022-11-20T01:19:52.168Z,78
2022-11-20T01:20:52.976Z,78
2022-11-20T01:21:53.348Z,78
2022-11-20T01:22:53.742Z,78
2022-11-20T01:23:54.518Z,78
2022-11-20T01:24:54.885Z,78
2022-11-20T01:25:55.295Z,78
2022-11-20T01:26:55.697Z,78
2022-11-20T01:27:56.066Z,78
2022-11-20T01:28:56.785Z,78
2022-11-20T01:30:01.081Z,78
2022-11-20T01:31:01.904Z,78
2022-11-20T01:32:02.273Z,78
2022-11-20T01:33:02.677Z,78
2022-11-20T01:34:03.489Z,78
2022-11-20T01:35:03.875Z,78
2022-11-20T01:36:04.665Z,78
2022-11-20T01:37:05.072Z,78
2022-11-20T01:38:05.473Z,78
2022-11-20T01:39:06.218Z,78
2022-11-20T01:40:06.578Z,78
2022-11-20T01:41:06.981Z,78
2022-11-20T01:42:10.094Z,78
2022-11-20T01:43:10.926Z,79
2022-11-20T01:44:11.697Z,79
2022-11-20T01:45:12.115Z,79
2022-11-20T01:46:12.514Z,79
2022-11-20T01:47:12.920Z,79
2022-11-20T01:48:13.282Z,79
2022-11-20T01:49:13.677Z,79
2022-11-20T01:50:14.112Z,79
2022-11-20T01:51:14.818Z,79
2022-11-20T01:52:15.215Z,79
2022-11-20T01:53:15.584Z,79
2022-11-20T01:54:16.027Z,79
2022-11-20T01:55:16.443Z,79
2022-11-20T01:56:16.815Z,79
2022-11-20T01:57:17.207Z,79
2022-11-20T01:58:17.604Z,79
2022-11-20T01:59:18.296Z,79
2022-11-20T02:00:18.868Z,79
2022-11-20T02:01:19.364Z,79
2022-11-20T02:02:19.833Z,79
2022-11-20T02:03:20.230Z,79
2022-11-20T02:04:20.664Z,79
2022-11-20T02:05:21.028Z,79
2022-11-20T02:06:21.766Z,79
2022-11-20T02:07:22.235Z,79
2022-11-20T02:08:22.641Z,79
2022-11-20T02:09:23.757Z,79
2022-11-20T02:10:24.242Z,79
2022-11-20T02:11:24.611Z,79
2022-11-20T02:12:25.023Z,79
2022-11-20T02:13:25.389Z,79
2022-11-20T02:14:26.082Z,79
2022-11-20T02:15:30.238Z,79
2022-11-20T02:16:30.997Z,79
2022-11-20T02:17:31.393Z,79
2022-11-20T02:18:31.787Z,79
2022-11-20T02:19:32.222Z,79
2022-11-20T02:20:32.621Z,79
2022-11-20T02:21:33.405Z,79
2022-11-20T02:22:33.807Z,79
2022-11-20T02:23:34.187Z,79
2022-11-20T02:24:35.021Z,79
2022-11-20T02:25:35.416Z,79
2022-11-20T02:26:35.777Z,79
2022-11-20T02:27:36.181Z,79
2022-11-20T02:28:36.563Z,79
2022-11-20T02:29:38.238Z,79
2022-11-20T02:30:38.642Z,79
2022-11-20T02:31:39.026Z,79
2022-11-20T02:32:39.420Z,79
2022-11-20T02:33:39.828Z,79
2022-11-20T02:34:40.654Z,79
2022-11-20T02:35:41.070Z,79
2022-11-20T02:36:41.892Z,79
2022-11-20T02:37:42.290Z,79
2022-11-20T02:38:42.685Z,79
2022-11-20T02:39:43.434Z,79
2022-11-20T02:40:43.831Z,79
2022-11-20T02:41:44.202Z,79
2022-11-20T02:42:44.601Z,79
2022-11-20T02:43:44.968Z,79
2022-11-20T02:44:45.787Z,79
2022-11-20T02:45:46.183Z,79
2022-11-20T02:46:46.546Z,79
2022-11-20T02:47:46.945Z,79
2022-11-20T02:48:47.355Z,79
2022-11-20T02:49:48.195Z,79
2022-11-20T02:50:48.604Z,79
2022-11-20T02:51:49.426Z,79
2022-11-20T02:52:49.827Z,79
2022-11-20T02:53:50.189Z,79
2022-11-20T02:54:50.958Z,79
2022-11-20T02:55:51.316Z,79
2022-11-20T02:56:51.715Z,79
2022-11-20T02:57:52.085Z,79
2022-11-20T02:58:52.486Z,80
2022-11-20T02:59:53.309Z,80
2022-11-20T03:00:53.750Z,80
2022-11-20T03:01:54.137Z,80
2022-11-20T03:02:54.541Z,80
2022-11-20T03:03:54.954Z,80
2022-11-20T03:04:55.765Z,80
2022-11-20T03:05:56.171Z,80
2022-11-20T03:06:57.021Z,80
2022-11-20T03:07:57.422Z,80
2022-11-20T03:08:57.840Z,80
2022-11-20T03:09:58.577Z,80
2022-11-20T03:10:58.985Z,80
2022-11-20T03:11:59.398Z,80
2022-11-20T03:12:59.786Z,80
2022-11-20T03:14:00.200Z,80
2022-11-20T03:15:00.946Z,80
2022-11-20T03:16:01.357Z,80
2022-11-20T03:17:01.870Z,80
2022-11-20T03:18:02.259Z,80
2022-11-20T03:19:02.652Z,80
2022-11-20T03:20:03.339Z,80
2022-11-20T03:21:03.719Z,80
2022-11-20T03:22:04.560Z,81
2022-11-20T03:23:04.923Z,81
2022-11-20T03:24:05.325Z,81
2022-11-20T03:25:06.043Z,81
2022-11-20T03:26:06.450Z,81
2022-11-20T03:27:06.859Z,81
2022-11-20T03:28:07.257Z,81
2022-11-20T03:29:07.643Z,81
2022-11-20T03:30:08.440Z,81
2022-11-20T03:31:08.946Z,81
2022-11-20T03:32:09.331Z,81
2022-11-20T03:33:09.717Z,81
2022-11-20T03:34:10.099Z,82
2022-11-20T03:35:10.917Z,82
2022-11-20T03:36:11.325Z,82
2022-11-20T03:37:12.046Z,82
2022-11-20T03:38:12.436Z,82
2022-11-20T03:39:12.870Z,82
2022-11-20T03:40:13.615Z,82
2022-11-20T03:41:13.986Z,82
2022-11-20T03:42:14.399Z,82
2022-11-20T03:43:14.787Z,82
2022-11-20T03:44:15.185Z,82
2022-11-20T03:45:15.934Z,82
2022-11-20T03:46:16.321Z,82
2022-11-20T03:47:16.745Z,82
2022-11-20T03:48:17.148Z,82
2022-11-20T03:49:17.548Z,82
2022-11-20T03:50:18.374Z,82
2022-11-20T03:51:18.791Z,82
2022-11-20T03:52:19.659Z,82
2022-11-20T03:53:20.078Z,82
2022-11-20T03:54:20.481Z,82
2022-11-20T03:55:21.290Z,82
2022-11-20T03:56:21.679Z,82
2022-11-20T03:57:22.053Z,82
2022-11-20T03:58:22.416Z,82
2022-11-20T03:59:23.205Z,82
2022-11-20T04:00:24.237Z,82
2022-11-20T04:01:24.638Z,83
2022-11-20T04:02:25.029Z,83
2022-11-20T04:03:25.422Z,83
2022-11-20T04:04:25.811Z,83
2022-11-20T04:05:26.558Z,83
2022-11-20T04:06:26.932Z,83
2022-11-20T04:07:27.743Z,83
2022-11-20T04:08:28.141Z,83
2022-11-20T04:09:28.513Z,83
2022-11-20T04:10:28.936Z,83
2022-11-20T04:11:29.329Z,82
2022-11-20T04:12:29.699Z,82
2022-11-20T04:13:30.067Z,83
2022-11-20T04:14:30.433Z,83
2022-11-20T04:15:34.361Z,83
2022-11-20T04:16:38.554Z,83
2022-11-20T04:17:38.945Z,83
2022-11-20T04:18:39.356Z,83
2022-11-20T04:19:39.718Z,83
2022-11-20T04:20:40.423Z,83
2022-11-20T04:21:40.826Z,83
2022-11-20T04:22:41.645Z,83
2022-11-20T04:23:42.024Z,83
2022-11-20T04:24:42.400Z,83
2022-11-20T04:25:43.077Z,83
2022-11-20T04:26:43.476Z,83
2022-11-20T04:27:43.848Z,83
2022-11-20T04:28:44.233Z,83
2022-11-20T04:29:44.598Z,83
2022-11-20T04:30:45.025Z,83
2022-11-20T04:31:45.392Z,83
2022-11-20T04:32:45.778Z,83
2022-11-20T04:33:46.161Z,83
2022-11-20T04:34:46.534Z,83
2022-11-20T04:35:47.360Z,83
2022-11-20T04:36:47.764Z,83
2022-11-20T04:37:48.604Z,83
2022-11-20T04:38:53.839Z,83
2022-11-20T04:39:56.860Z,83
2022-11-20T04:40:57.617Z,83
2022-11-20T04:41:58.018Z,83
2022-11-20T04:42:58.419Z,83
2022-11-20T04:43:58.783Z,83
2022-11-20T04:44:59.148Z,83
2022-11-20T04:45:59.940Z,83
2022-11-20T04:47:00.336Z,83
2022-11-20T04:48:00.703Z,83
2022-11-20T04:49:01.109Z,83
2022-11-20T04:50:01.541Z,83
2022-11-20T04:51:02.381Z,83
2022-11-20T04:52:03.163Z,83
2022-11-20T04:53:03.563Z,83
2022-11-20T04:54:03.934Z,83
2022-11-20T04:55:04.324Z,83
2022-11-20T04:56:05.084Z,83
2022-11-20T04:57:07.892Z,83
2022-11-20T04:58:11.768Z,83
2022-11-20T04:59:12.129Z,83
2022-11-20T05:00:12.646Z,83
2022-11-20T05:01:13.650Z,83
2022-11-20T05:02:14.083Z,83
2022-11-20T05:03:14.452Z,83
2022-11-20T05:04:14.841Z,83
2022-11-20T05:05:15.204Z,83
2022-11-20T05:06:16.021Z,83
2022-11-20T05:07:16.879Z,83
2022-11-20T05:08:17.317Z,83
2022-11-20T05:09:17.702Z,83
2022-11-20T05:10:18.064Z,83
2022-11-20T05:11:18.809Z,83
2022-11-20T05:12:19.233Z,83
2022-11-20T05:13:19.638Z,83
2022-11-20T05:14:20.079Z,83
2022-11-20T05:15:20.632Z,83
2022-11-20T05:16:21.687Z,83
2022-11-20T05:17:22.232Z,83
2022-11-20T05:18:22.598Z,83
2022-11-20T05:19:23.310Z,83
2022-11-20T05:20:23.884Z,83
2022-11-20T05:21:24.704Z,83
2022-11-20T05:22:25.463Z,83
2022-11-20T05:23:25.830Z,83
2022-11-20T05:24:27.780Z,83
2022-11-20T05:25:28.191Z,83
2022-11-20T05:26:28.860Z,83
2022-11-20T05:27:29.235Z,83
2022-11-20T05:28:29.631Z,83
2022-11-20T05:29:29.995Z,83
2022-11-20T05:30:30.408Z,83
2022-11-20T05:31:31.145Z,83
2022-11-20T05:32:31.545Z,83
2022-11-20T05:33:31.909Z,83
2022-11-20T05:34:32.294Z,83
2022-11-20T05:35:32.660Z,83
2022-11-20T05:36:33.504Z,83
2022-11-20T05:37:34.266Z,83
2022-11-20T05:38:34.655Z,83
2022-11-20T05:39:35.056Z,83
2022-11-20T05:40:35.464Z,83
2022-11-20T05:41:36.213Z,83
2022-11-20T05:42:36.630Z,83
2022-11-20T05:43:37.021Z,83
2022-11-20T05:44:37.424Z,83
2022-11-20T05:45:37.833Z,83
2022-11-20T05:46:38.641Z,83
2022-11-20T05:47:39.009Z,83
2022-11-20T05:48:39.378Z,83
2022-11-20T05:49:39.776Z,83
2022-11-20T05:50:40.137Z,83
2022-11-20T05:51:40.950Z,83
2022-11-20T05:52:41.764Z,83
2022-11-20T05:53:46.841Z,83
2022-11-20T05:54:48.841Z,83
2022-11-20T05:55:49.251Z,83
2022-11-20T05:56:50.087Z,83
2022-11-20T05:57:50.476Z,83
2022-11-20T05:58:50.853Z,83
2022-11-20T05:59:51.241Z,83
2022-11-20T06:00:51.634Z,83
2022-11-20T06:01:52.446Z,83
2022-11-20T06:02:52.915Z,83
2022-11-20T06:03:53.369Z,83
2022-11-20T06:04:53.731Z,83
2022-11-20T06:05:54.463Z,83
2022-11-20T06:06:54.829Z,83
2022-11-20T06:07:55.641Z,83
2022-11-20T06:08:56.004Z,83
2022-11-20T06:09:56.406Z,83
2022-11-20T06:10:57.131Z,83
2022-11-20T06:11:57.545Z,83
2022-11-20T06:12:57.963Z,83
2022-11-20T06:13:58.341Z,83
2022-11-20T06:14:58.744Z,83
2022-11-20T06:15:59.505Z,83
2022-11-20T06:16:59.934Z,83
2022-11-20T06:18:00.366Z,83
2022-11-20T06:19:00.741Z,83
2022-11-20T06:20:01.145Z,83
2022-11-20T06:21:01.956Z,83
2022-11-20T06:22:02.343Z,83
2022-11-20T06:23:03.059Z,83
2022-11-20T06:24:03.450Z,83
2022-11-20T06:25:03.861Z,83
2022-11-20T06:26:04.612Z,83
2022-11-20T06:27:05.022Z,83
2022-11-20T06:28:05.446Z,83
2022-11-20T06:29:05.851Z,83
2022-11-20T06:30:06.245Z,83
2022-11-20T06:31:07.019Z,83
2022-11-20T06:32:07.423Z,83
2022-11-20T06:33:07.792Z,83
2022-11-20T06:34:08.193Z,83
2022-11-20T06:35:08.641Z,83
2022-11-20T06:36:10.899Z,83
2022-11-20T06:37:11.610Z,83
2022-11-20T06:38:12.317Z,83
2022-11-20T06:39:12.979Z,83
2022-11-20T06:40:13.371Z,83
2022-11-20T06:41:14.206Z,83
2022-11-20T06:42:14.609Z,83
2022-11-20T06:43:15.020Z,83
2022-11-20T06:44:15.405Z,83
2022-11-20T06:45:15.805Z,83
2022-11-20T06:46:16.637Z,83
2022-11-20T06:47:17.041Z,84
2022-11-20T06:48:17.439Z,84
2022-11-20T06:49:17.879Z,84
2022-11-20T06:50:18.280Z,84
2022-11-20T06:51:19.105Z,84
2022-11-20T06:52:19.498Z,84
2022-11-20T06:53:20.332Z,84
2022-11-20T06:54:20.744Z,84
2022-11-20T06:55:21.136Z,84
2022-11-20T06:56:21.902Z,84
2022-11-20T06:57:22.301Z,84
2022-11-20T06:58:22.701Z,84
2022-11-20T06:59:23.449Z,84
2022-11-20T07:00:24.063Z,84
2022-11-20T07:01:24.880Z,84
2022-11-20T07:02:25.319Z,84
2022-11-20T07:03:25.705Z,84
2022-11-20T07:04:26.109Z,84
2022-11-20T07:05:26.473Z,84
2022-11-20T07:06:27.240Z,84
2022-11-20T07:07:27.685Z,84
2022-11-20T07:08:28.458Z,84
2022-11-20T07:09:28.853Z,84
2022-11-20T07:10:29.271Z,84
2022-11-20T07:11:29.838Z,84
2022-11-20T07:12:30.204Z,84
2022-11-20T07:13:30.571Z,84
2022-11-20T07:14:30.952Z,84
2022-11-20T07:15:31.318Z,84
2022-11-20T07:16:32.135Z,84
2022-11-20T07:17:32.512Z,85
2022-11-20T07:18:32.914Z,85
2022-11-20T07:19:33.295Z,85
2022-11-20T07:20:33.688Z,85
2022-11-20T07:21:34.448Z,85
2022-11-20T07:22:34.837Z,85
2022-11-20T07:23:35.587Z,85
2022-11-20T07:24:35.964Z,85
2022-11-20T07:25:36.355Z,85
2022-11-20T07:26:37.061Z,85
2022-11-20T07:27:37.467Z,85
2022-11-20T07:28:37.832Z,85
2022-11-20T07:29:38.194Z,85
2022-11-20T07:30:38.598Z,85
2022-11-20T07:31:39.373Z,85
2022-11-20T07:32:39.764Z,85
2022-11-20T07:33:40.130Z,85
2022-11-20T07:34:40.522Z,85
2022-11-20T07:35:40.921Z,85
2022-11-20T07:36:41.759Z,85
2022-11-20T07:37:42.173Z,85
2022-11-20T07:38:42.978Z,85
2022-11-20T07:39:43.378Z,85
2022-11-20T07:40:43.780Z,85
2022-11-20T07:41:44.527Z,85
2022-11-20T07:42:44.936Z,85
2022-11-20T07:43:45.393Z,85
2022-11-20T07:44:45.796Z,85
2022-11-20T07:45:46.192Z,85
2022-11-20T07:46:46.864Z,85
2022-11-20T07:47:47.264Z,85
2022-11-20T07:48:47.658Z,85
2022-11-20T07:49:48.049Z,85
2022-11-20T07:50:48.459Z,85
2022-11-20T07:51:51.911Z,85
2022-11-20T07:52:52.471Z,85
2022-11-20T07:53:53.217Z,85
2022-11-20T07:54:53.590Z,85
2022-11-20T07:55:53.980Z,85
2022-11-20T07:56:54.700Z,85
2022-11-20T07:57:55.114Z,85
2022-11-20T07:58:55.479Z,85
2022-11-20T07:59:55.877Z,85
2022-11-20T08:00:56.284Z,85
2022-11-20T08:01:57.253Z,85
2022-11-20T08:02:57.651Z,85
2022-11-20T08:03:58.015Z,85
2022-11-20T08:04:58.411Z,85
2022-11-20T08:05:59.225Z,85
2022-11-20T08:06:59.614Z,85
2022-11-20T08:08:00.009Z,85
2022-11-20T08:09:00.773Z,85
2022-11-20T08:10:01.153Z,85
2022-11-20T08:11:01.963Z,85
2022-11-20T08:12:02.372Z,85
2022-11-20T08:13:02.784Z,85
2022-11-20T08:14:03.181Z,85
2022-11-20T08:15:06.166Z,85
2022-11-20T08:16:10.614Z,85
2022-11-20T08:17:10.993Z,85
2022-11-20T08:18:30.676Z,85
2022-11-20T08:19:32.390Z,85
2022-11-20T08:20:32.765Z,85
2022-11-20T08:21:38.049Z,85
2022-11-20T08:22:38.849Z,85
2022-11-20T08:23:39.268Z,85
2022-11-20T08:24:39.984Z,85
2022-11-20T08:25:40.397Z,85
2022-11-20T08:26:41.139Z,85
2022-11-20T08:27:41.575Z,85
2022-11-20T08:28:41.978Z,85
2022-11-20T08:29:42.381Z,85
2022-11-20T08:30:42.786Z,85
2022-11-20T08:31:43.578Z,85
2022-11-20T08:32:43.946Z,85
2022-11-20T08:33:44.352Z,85
2022-11-20T08:34:44.719Z,85
2022-11-20T08:35:45.090Z,85
2022-11-20T08:36:45.938Z,85
2022-11-20T08:37:46.314Z,85
2022-11-20T08:38:46.725Z,85
2022-11-20T08:39:47.447Z,85
2022-11-20T08:40:47.854Z,85
2022-11-20T08:41:48.587Z,85
2022-11-20T08:42:48.949Z,85
2022-11-20T08:43:49.342Z,85
2022-11-20T08:44:49.710Z,85
2022-11-20T08:45:50.101Z,85
2022-11-20T08:46:50.856Z,85
2022-11-20T08:47:51.258Z,85
2022-11-20T08:48:51.664Z,85
2022-11-20T08:49:52.064Z,85
2022-11-20T08:50:52.456Z,85
2022-11-20T08:51:53.240Z,85
2022-11-20T08:52:53.608Z,85
2022-11-20T08:53:54.001Z,85
2022-11-20T08:54:54.730Z,85
2022-11-20T08:55:55.118Z,85
2022-11-20T08:56:55.870Z,85
2022-11-20T08:57:56.262Z,85
2022-11-20T08:59:18.323Z,85
2022-11-20T09:00:20.864Z,85
2022-11-20T09:01:21.725Z,85
2022-11-20T09:02:22.208Z,85
2022-11-20T09:03:22.588Z,85
2022-11-20T09:04:23.005Z,85
2022-11-20T09:05:23.401Z,85
2022-11-20T09:06:24.218Z,85
2022-11-20T09:07:24.686Z,85
2022-11-20T09:08:25.098Z,85
2022-11-20T09:09:25.802Z,85
2022-11-20T09:10:26.766Z,85
2022-11-20T09:11:27.188Z,85
2022-11-20T09:12:27.556Z,85
2022-11-20T09:13:27.916Z,85
2022-11-20T09:14:28.333Z,85
2022-11-20T09:15:28.737Z,85
2022-11-20T09:16:29.484Z,85
2022-11-20T09:17:29.854Z,85
2022-11-20T09:18:30.258Z,85
2022-11-20T09:19:36.450Z,85
2022-11-20T09:20:37.157Z,85
2022-11-20T09:21:37.927Z,85
2022-11-20T09:22:38.339Z,85
2022-11-20T09:23:38.743Z,85
2022-11-20T09:24:39.152Z,85
2022-11-20T09:25:39.837Z,84
2022-11-20T09:26:40.608Z,84
2022-11-20T09:27:41.006Z,84
2022-11-20T09:28:41.418Z,84
2022-11-20T09:29:41.798Z,84
2022-11-20T09:30:42.191Z,84
2022-11-20T09:31:43.005Z,84
2022-11-20T09:32:43.412Z,84
2022-11-20T09:33:43.973Z,84
2022-11-20T09:34:44.359Z,84
2022-11-20T09:35:44.755Z,84
2022-11-20T09:36:45.586Z,84
2022-11-20T09:37:45.954Z,84
2022-11-20T09:38:46.372Z,84
2022-11-20T09:39:46.752Z,84
2022-11-20T09:40:47.569Z,84
2022-11-20T09:41:48.296Z,84
2022-11-20T09:42:48.690Z,84
2022-11-20T09:43:49.059Z,84
2022-11-20T09:44:49.463Z,84
2022-11-20T09:45:49.870Z,84
2022-11-20T09:46:50.689Z,84
2022-11-20T09:47:51.095Z,84
2022-11-20T09:48:51.464Z,84
2022-11-20T09:49:51.872Z,84
2022-11-20T09:50:52.237Z,84
2022-11-20T09:51:52.983Z,84
2022-11-20T09:52:53.353Z,84
2022-11-20T09:53:53.765Z,84
2022-11-20T09:54:54.164Z,84
2022-11-20T09:55:54.898Z,84
2022-11-20T09:56:55.746Z,84
2022-11-20T09:57:56.149Z,84
2022-11-20T09:58:56.537Z,84
2022-11-20T09:59:56.926Z,84
2022-11-20T10:00:57.539Z,84
2022-11-20T10:01:58.475Z,84
2022-11-20T10:02:58.872Z,84
2022-11-20T10:03:59.281Z,84
2022-11-20T10:04:59.694Z,84
2022-11-20T10:06:00.080Z,84
2022-11-20T10:07:30.416Z,84
2022-11-20T10:08:32.018Z,84
2022-11-20T10:09:32.398Z,84
2022-11-20T10:10:32.768Z,84
2022-11-20T10:11:33.609Z,84
2022-11-20T10:12:34.417Z,84
2022-11-20T10:13:34.830Z,84
2022-11-20T10:14:35.238Z,84
2022-11-20T10:15:35.650Z,84
2022-11-20T10:16:40.818Z,84
2022-11-20T10:17:42.009Z,84
2022-11-20T10:18:42.400Z,84
2022-11-20T10:19:42.799Z,84
2022-11-20T10:20:43.201Z,84
2022-11-20T10:21:43.569Z,84
2022-11-20T10:22:44.276Z,83
2022-11-20T10:23:44.639Z,83
2022-11-20T10:24:45.002Z,83
2022-11-20T10:25:45.439Z,83
2022-11-20T10:26:46.213Z,83
2022-11-20T10:27:46.908Z,83
2022-11-20T10:28:54.045Z,83
2022-11-20T10:29:57.750Z,83
2022-11-20T10:30:58.149Z,83
2022-11-20T10:31:58.547Z,83
2022-11-20T10:32:59.247Z,83
2022-11-20T10:34:11.547Z,83
2022-11-20T10:35:12.946Z,83
2022-11-20T10:36:13.362Z,83
2022-11-20T10:37:13.760Z,83
2022-11-20T10:38:14.502Z,83
2022-11-20T10:39:14.891Z,83
2022-11-20T10:40:15.286Z,83
2022-11-20T10:41:15.685Z,83
2022-11-20T10:42:16.468Z,83
2022-11-20T10:43:17.175Z,83
2022-11-20T10:44:17.568Z,83
2022-11-20T10:45:17.983Z,83
2022-11-20T10:46:18.349Z,82
2022-11-20T10:47:18.758Z,82
2022-11-20T10:48:19.590Z,82
2022-11-20T10:49:20.347Z,82
2022-11-20T10:50:22.581Z,82
2022-11-20T10:51:23.148Z,82
2022-11-20T10:52:23.566Z,82
2022-11-20T10:53:24.270Z,82
2022-11-20T10:54:24.660Z,82
2022-11-20T10:55:25.062Z,82
2022-11-20T10:56:25.470Z,82
2022-11-20T10:57:26.172Z,82
2022-11-20T10:58:26.915Z,82
2022-11-20T10:59:27.319Z,82
2022-11-20T11:00:27.721Z,82
2022-11-20T11:01:28.202Z,82
2022-11-20T11:02:28.604Z,82
2022-11-20T11:03:29.357Z,81
2022-11-20T11:04:29.721Z,81
2022-11-20T11:05:30.116Z,81
2022-11-20T11:06:30.524Z,81
2022-11-20T11:07:30.955Z,81
2022-11-20T11:08:31.813Z,81
2022-11-20T11:09:32.227Z,81
2022-11-20T11:10:32.632Z,81
2022-11-20T11:11:33.041Z,81
2022-11-20T11:12:33.864Z,81
2022-11-20T11:13:34.595Z,81
2022-11-20T11:14:34.991Z,81
2022-11-20T11:15:35.388Z,81
2022-11-20T11:16:35.807Z,81
2022-11-20T11:17:36.212Z,81
2022-11-20T11:18:36.990Z,81
2022-11-20T11:19:37.391Z,81
2022-11-20T11:20:38.135Z,81
2022-11-20T11:21:38.535Z,81
2022-11-20T11:22:38.936Z,81
2022-11-20T11:23:39.756Z,81
2022-11-20T11:24:43.122Z,81
2022-11-20T11:25:43.784Z,81
2022-11-20T11:26:44.182Z,81
2022-11-20T11:27:44.886Z,81
2022-11-20T11:28:45.706Z,81
2022-11-20T11:29:46.113Z,81
2022-11-20T11:30:46.510Z,81
2022-11-20T11:31:46.919Z,81
2022-11-20T11:32:47.329Z,81
2022-11-20T11:33:48.081Z,81
2022-11-20T11:34:48.489Z,81
2022-11-20T11:35:51.282Z,81
2022-11-20T11:36:52.226Z,81
2022-11-20T11:37:52.629Z,81
2022-11-20T11:38:53.474Z,81
2022-11-20T11:40:16.470Z,81
2022-11-20T11:41:23.996Z,81
2022-11-20T11:42:24.405Z,81
2022-11-20T11:43:24.803Z,81
2022-11-20T11:44:25.609Z,81
2022-11-20T11:45:26.238Z,81
2022-11-20T11:46:26.644Z,81
2022-11-20T11:47:27.054Z,81
2022-11-20T11:48:27.459Z,81
2022-11-20T11:49:28.080Z,81
2022-11-20T11:50:28.857Z,81
2022-11-20T11:51:29.296Z,81
2022-11-20T11:52:29.690Z,81
2022-11-20T11:53:30.092Z,81
2022-11-20T11:54:30.855Z,81
2022-11-20T11:55:31.255Z,81
2022-11-20T11:56:32.051Z,81
2022-11-20T11:57:32.451Z,81
2022-11-20T11:58:32.852Z,81
2022-11-20T11:59:33.576Z,81
2022-11-20T12:00:33.984Z,81
2022-11-20T12:01:34.385Z,81
2022-11-20T12:02:34.848Z,81
2022-11-20T12:03:35.322Z,81
2022-11-20T12:04:36.071Z,81
2022-11-20T12:05:36.487Z,81
2022-11-20T12:06:36.878Z,81
2022-11-20T12:07:46.432Z,81
2022-11-20T12:08:47.636Z,81
2022-11-20T12:09:48.347Z,81
2022-11-20T12:10:48.758Z,81
2022-11-20T12:11:49.518Z,81
2022-11-20T12:12:49.913Z,81
2022-11-20T12:13:50.313Z,81
2022-11-20T12:14:51.138Z,81
2022-11-20T12:15:51.541Z,81
2022-11-20T12:16:51.936Z,81
2022-11-20T12:17:52.343Z,81
2022-11-20T12:18:52.740Z,81
2022-11-20T12:19:53.462Z,81
2022-11-20T12:20:53.861Z,81
2022-11-20T12:21:58.466Z,81
2022-11-20T12:23:00.579Z,81
2022-11-20T12:24:00.942Z,81
2022-11-20T12:25:01.775Z,81
2022-11-20T12:26:02.177Z,81
2022-11-20T12:27:02.997Z,81
2022-11-20T12:28:03.415Z,81
2022-11-20T12:29:03.820Z,81
2022-11-20T12:30:04.566Z,81
2022-11-20T12:31:04.971Z,81
2022-11-20T12:32:05.368Z,81
2022-11-20T12:33:05.770Z,81
2022-11-20T12:34:06.183Z,81
2022-11-20T12:35:11.266Z,81
2022-11-20T12:36:12.059Z,81
2022-11-20T12:37:12.467Z,81
2022-11-20T12:38:12.907Z,81
2022-11-20T12:39:13.272Z,81
2022-11-20T12:40:14.036Z,81
2022-11-20T12:41:14.446Z,81
2022-11-20T12:42:15.207Z,81
2022-11-20T12:43:15.609Z,81
2022-11-20T12:44:16.020Z,81
2022-11-20T12:45:16.847Z,81
2022-11-20T12:46:17.262Z,81
2022-11-20T12:47:17.676Z,81
2022-11-20T12:48:18.106Z,81
2022-11-20T12:49:18.513Z,81
2022-11-20T12:50:19.341Z,81
2022-11-20T12:51:19.872Z,81
2022-11-20T12:52:20.329Z,81
2022-11-20T12:53:20.732Z,81
2022-11-20T12:54:21.143Z,81
2022-11-20T12:55:21.948Z,81
2022-11-20T12:56:22.342Z,81
2022-11-20T12:57:23.162Z,81
2022-11-20T12:58:23.560Z,81
2022-11-20T12:59:24.482Z,81
2022-11-20T13:00:25.550Z,81
2022-11-20T13:01:26.027Z,81
2022-11-20T13:02:26.861Z,81
2022-11-20T13:03:27.268Z,81
2022-11-20T13:04:27.677Z,81
2022-11-20T13:05:28.483Z,81
2022-11-20T13:06:28.896Z,81
2022-11-20T13:07:29.365Z,81
2022-11-20T13:08:29.817Z,81
2022-11-20T13:09:30.212Z,81
2022-11-20T13:10:31.013Z,81
2022-11-20T13:11:31.416Z,81
2022-11-20T13:12:32.242Z,81
2022-11-20T13:13:32.653Z,81
2022-11-20T13:14:33.084Z,81
2022-11-20T13:15:33.908Z,81
2022-11-20T13:16:34.312Z,81
2022-11-20T13:17:34.719Z,81
2022-11-20T13:18:35.118Z,81
2022-11-20T13:19:35.515Z,81
2022-11-20T13:20:36.254Z,81
2022-11-20T13:21:36.667Z,81
2022-11-20T13:22:37.076Z,81
2022-11-20T13:23:37.477Z,81
2022-11-20T13:24:37.896Z,81
2022-11-20T13:25:38.326Z,81
2022-11-20T13:26:38.725Z,81
2022-11-20T13:27:39.497Z,81
2022-11-20T13:28:39.895Z,81
2022-11-20T13:29:40.293Z,81
2022-11-20T13:30:41.156Z,81
2022-11-20T13:31:41.556Z,81
2022-11-20T13:32:41.960Z,81
2022-11-20T13:33:42.374Z,81
2022-11-20T13:34:42.773Z,81
2022-11-20T13:35:43.600Z,81
2022-11-20T13:36:44.001Z,81
2022-11-20T13:37:44.405Z,81
2022-11-20T13:38:44.797Z,81
2022-11-20T13:39:45.189Z,81
2022-11-20T13:40:45.901Z,81
2022-11-20T13:41:46.308Z,81
2022-11-20T13:42:47.080Z,81
2022-11-20T13:43:47.511Z,81
2022-11-20T13:44:47.918Z,81
2022-11-20T13:45:48.733Z,81
2022-11-20T13:46:49.139Z,81
2022-11-20T13:47:49.554Z,81
2022-11-20T13:48:49.971Z,81
2022-11-20T13:49:50.392Z,81
2022-11-20T13:50:51.221Z,81
2022-11-20T13:51:51.752Z,81
2022-11-20T13:52:52.169Z,81
2022-11-20T13:53:52.569Z,81
2022-11-20T13:54:52.978Z,81
2022-11-20T13:55:53.816Z,81
2022-11-20T13:56:54.221Z,81
2022-11-20T13:57:55.051Z,81
2022-11-20T13:58:55.446Z,81
2022-11-20T13:59:55.889Z,81
2022-11-20T14:00:56.807Z,81
2022-11-20T14:01:57.236Z,81
2022-11-20T14:02:57.632Z,81
2022-11-20T14:04:06.154Z,81
2022-11-20T14:05:07.078Z,81
2022-11-20T14:06:07.922Z,81
2022-11-20T14:07:08.356Z,81
2022-11-20T14:08:08.794Z,81
2022-11-20T14:09:09.186Z,81
2022-11-20T14:10:09.598Z,81
2022-11-20T14:11:10.297Z,81
2022-11-20T14:12:10.705Z,81
2022-11-20T14:13:11.576Z,81
2022-11-20T14:14:11.994Z,81
2022-11-20T14:15:12.394Z,81
2022-11-20T14:16:13.143Z,81
2022-11-20T14:17:13.538Z,81
2022-11-20T14:18:13.933Z,81
2022-11-20T14:19:14.334Z,81
2022-11-20T14:20:14.743Z,81
2022-11-20T14:21:15.544Z,81
2022-11-20T14:22:15.940Z,81
2022-11-20T14:23:16.339Z,81
2022-11-20T14:24:16.740Z,81
2022-11-20T14:25:17.148Z,81
2022-11-20T14:26:17.895Z,81